Terminal Aerodrome Forecast
Issued by NWS Quad Cities IA IL

Home | Current Version | Previous Version | Text Only | Print | Product List | Glossary On
Versions: 1 2 3 4 5 6 7 8 9 10 11 12 13 14 15 16 17 18 19 20 21 22 23 24 25
000
FTUS43 KDVN 301151
TAFMLI
TAF
KMLI 301151Z 3012/3112 21005KT P6SM -SHRA SCT009 BKN020
      TEMPO 3012/3015 5SM -RA SCT007 BKN012
     FM301800 02017G25KT P6SM VCSH SCT009 OVC012
     FM302300 06014G22KT P6SM SCT025 BKN050
     FM310400 02011KT P6SM SCT025=

USA.gov is the U.S. government's official web portal to all federal, state and local government web resources and services.